Time;durP1;ratioP1;P1;durP2;ratioP2;P2;SDS_P1;SDS_P2;PMS_P1;PMS_P2;Temp;Humidity;BMP_temperature;BMP_pressure;BME280_temperature;BME280_humidity;BME280_pressure;Samples;Min_cycle;Max_cycle;Signal;HPM_P1;HPM_P2
2022/11/26 00:00:54;;;;;;;14.60;5.28;;;6.30;99.90;;;;;;5113105;28;20067;-87
2022/11/26 00:03:19;;;;;;;14.60;5.13;;;6.30;99.90;;;;;;5111898;28;20496;-87
2022/11/26 00:05:48;;;;;;;13.13;4.93;;;6.30;99.90;;;;;;5112984;28;20074;-87
2022/11/26 00:08:33;;;;;;;19.15;5.22;;;6.20;99.90;;;;;;5093919;28;20031;-87
2022/11/26 00:11:00;;;;;;;15.15;5.10;;;6.20;99.90;;;;;;5099831;28;20067;-87
2022/11/26 00:13:28;;;;;;;14.50;5.72;;;6.20;99.90;;;;;;5101959;28;20074;-87
2022/11/26 00:15:55;;;;;;;17.75;5.18;;;6.20;99.90;;;;;;5055485;28;20502;-87
2022/11/26 00:18:27;;;;;;;14.75;5.00;;;6.20;99.90;;;;;;5115816;27;20545;-87
2022/11/26 00:20:58;;;;;;;12.75;5.15;;;6.20;99.90;;;;;;5086875;28;20112;-86
2022/11/26 00:23:27;;;;;;;14.88;5.50;;;6.20;99.90;;;;;;5097950;28;20024;-87
2022/11/26 00:25:57;;;;;;;13.50;5.25;;;6.10;99.90;;;;;;5085152;28;20405;-87
2022/11/26 00:28:34;;;;;;;13.85;5.70;;;6.10;99.90;;;;;;5090134;28;20058;-87
2022/11/26 00:31:03;;;;;;;14.85;6.32;;;6.10;99.90;;;;;;5089471;28;20436;-87
2022/11/26 00:33:30;;;;;;;18.77;6.70;;;6.10;99.90;;;;;;5090872;28;20554;-87
2022/11/26 00:36:18;;;;;;;18.08;6.30;;;6.10;99.90;;;;;;5091662;28;20063;-87
2022/11/26 00:38:46;;;;;;;16.98;6.35;;;6.10;99.90;;;;;;5091744;28;20043;-87
2022/11/26 00:41:17;;;;;;;19.65;6.97;;;6.10;99.90;;;;;;5064015;28;20047;-87
2022/11/26 00:43:44;;;;;;;16.98;6.55;;;6.10;99.90;;;;;;5102253;28;20418;-87
2022/11/26 00:46:20;;;;;;;17.23;6.43;;;6.10;99.90;;;;;;5091808;28;20040;-87
2022/11/26 00:48:46;;;;;;;16.98;6.32;;;6.10;99.90;;;;;;5075799;28;20033;-87
2022/11/26 00:51:24;;;;;;;15.90;6.78;;;6.10;99.90;;;;;;5074834;28;20036;-86
2022/11/26 00:53:55;;;;;;;17.05;6.75;;;6.10;99.90;;;;;;5091660;28;20097;-86
2022/11/26 00:56:21;;;;;;;14.77;6.45;;;6.10;99.90;;;;;;5092633;28;20035;-86
2022/11/26 00:58:48;;;;;;;16.63;6.70;;;6.10;99.90;;;;;;5095091;28;20081;-87
2022/11/26 01:01:17;;;;;;;16.17;6.28;;;6.10;99.90;;;;;;5094455;28;20046;-86
2022/11/26 01:03:43;;;;;;;21.15;6.72;;;6.10;99.90;;;;;;5111130;28;20040;-86
2022/11/26 01:06:22;;;;;;;18.75;7.07;;;6.00;99.90;;;;;;5111664;28;20042;-87
2022/11/26 01:08:49;;;;;;;17.75;6.55;;;6.00;99.90;;;;;;5111166;28;20400;-87
2022/11/26 01:11:17;;;;;;;20.02;7.32;;;6.00;99.90;;;;;;5094636;28;20042;-86
2022/11/26 01:13:45;;;;;;;16.50;6.85;;;6.00;99.90;;;;;;5110231;28;20039;-87
2022/11/26 01:16:15;;;;;;;12.07;6.55;;;6.00;99.90;;;;;;5111636;28;20117;-87
2022/11/26 01:18:40;;;;;;;16.75;7.13;;;6.00;99.90;;;;;;5094857;28;20116;-86
2022/11/26 01:21:09;;;;;;;16.77;6.65;;;6.00;99.90;;;;;;5110309;28;20500;-87
2022/11/26 01:23:35;;;;;;;16.25;6.63;;;6.00;99.90;;;;;;5094500;28;20079;-87
2022/11/26 01:26:00;;;;;;;15.63;6.80;;;6.00;99.90;;;;;;5093966;28;20126;-87
2022/11/26 01:28:26;;;;;;;12.25;6.63;;;6.00;99.90;;;;;;5107464;28;20036;-87
2022/11/26 01:30:52;;;;;;;15.52;6.10;;;6.00;99.90;;;;;;5091039;28;20067;-87
2022/11/26 01:33:17;;;;;;;14.63;7.32;;;5.90;99.90;;;;;;5105706;28;20050;-87
2022/11/26 01:35:43;;;;;;;19.90;7.43;;;5.90;99.90;;;;;;5094410;28;20040;-87
2022/11/26 01:38:13;;;;;;;14.27;6.63;;;5.90;99.90;;;;;;5111098;28;20035;-87
2022/11/26 01:41:25;;;;;;;15.65;6.82;;;5.90;99.90;;;;;;5077495;28;20089;-87
2022/11/26 01:43:51;;;;;;;19.77;7.20;;;5.90;99.90;;;;;;5047278;28;20050;-87
2022/11/26 01:46:18;;;;;;;17.88;7.78;;;5.90;99.90;;;;;;5094018;28;20039;-87
2022/11/26 01:48:46;;;;;;;15.40;8.13;;;5.90;99.90;;;;;;5110301;28;20471;-86
2022/11/26 01:51:14;;;;;;;19.30;7.88;;;5.90;99.90;;;;;;5093358;28;20051;-87
2022/11/26 01:54:09;;;;;;;16.83;7.57;;;5.90;99.90;;;;;;5110668;28;20035;-86
2022/11/26 01:56:51;;;;;;;16.10;6.75;;;5.90;99.90;;;;;;4994613;28;20510;-86
2022/11/26 01:59:27;;;;;;;16.73;7.25;;;5.90;99.90;;;;;;5013012;28;20045;-87
2022/11/26 02:01:56;;;;;;;14.88;7.55;;;5.90;99.90;;;;;;5012302;28;20132;-87
2022/11/26 02:04:27;;;;;;;16.08;7.93;;;5.90;99.90;;;;;;5012019;28;20048;-87
2022/11/26 02:06:54;;;;;;;18.00;8.15;;;5.90;99.90;;;;;;5012649;28;20081;-87
2022/11/26 02:09:21;;;;;;;14.45;7.40;;;5.90;99.90;;;;;;5027743;28;20126;-86
2022/11/26 02:11:46;;;;;;;16.80;7.63;;;5.90;99.90;;;;;;5012669;28;20072;-86
2022/11/26 02:14:38;;;;;;;15.02;6.68;;;5.80;99.90;;;;;;5008212;28;20138;-87
2022/11/26 02:17:03;;;;;;;17.52;7.68;;;5.90;99.90;;;;;;5025331;28;20049;-86
2022/11/26 02:19:35;;;;;;;16.25;7.63;;;5.80;99.90;;;;;;5012336;28;20107;-86
2022/11/26 02:22:48;;;;;;;15.35;7.15;;;5.80;99.90;;;;;;5011204;28;20111;-86
2022/11/26 02:25:32;;;;;;;14.68;8.00;;;5.80;99.90;;;;;;5006780;28;20042;-86
2022/11/26 02:28:16;;;;;;;18.65;7.32;;;5.80;99.90;;;;;;5011172;28;20048;-86
2022/11/26 02:30:46;;;;;;;21.83;7.75;;;5.80;99.90;;;;;;5012234;28;20088;-86
2022/11/26 02:33:25;;;;;;;17.70;7.35;;;5.70;99.90;;;;;;5067971;28;20047;-86
2022/11/26 02:35:57;;;;;;;16.17;7.65;;;5.80;99.90;;;;;;5106743;28;20050;-86
2022/11/26 02:38:24;;;;;;;15.23;7.32;;;5.70;99.90;;;;;;5098647;28;20040;-86
2022/11/26 02:40:51;;;;;;;18.77;7.85;;;5.80;99.90;;;;;;5102983;28;20080;-86
2022/11/26 02:43:18;;;;;;;20.45;7.80;;;5.80;99.90;;;;;;5076891;28;20036;-86
2022/11/26 02:45:54;;;;;;;17.05;8.15;;;5.80;99.90;;;;;;5077058;28;20437;-86
2022/11/26 02:48:24;;;;;;;21.45;8.93;;;5.80;99.90;;;;;;5073136;28;20048;-86
2022/11/26 02:50:55;;;;;;;15.93;7.45;;;5.80;99.90;;;;;;5110033;28;20524;-87
2022/11/26 02:53:24;;;;;;;22.17;8.75;;;5.80;99.90;;;;;;5109239;28;20036;-86
2022/11/26 02:56:01;;;;;;;18.83;8.30;;;5.80;99.90;;;;;;5109687;28;20096;-86
2022/11/26 02:58:27;;;;;;;16.77;8.07;;;5.80;99.90;;;;;;5092952;28;20508;-86
2022/11/26 03:00:55;;;;;;;15.23;7.70;;;5.80;99.90;;;;;;5090455;28;20043;-86
2022/11/26 03:03:26;;;;;;;17.52;7.28;;;5.80;99.90;;;;;;5109306;28;20032;-87
2022/11/26 03:05:54;;;;;;;18.33;8.18;;;5.80;99.90;;;;;;5092987;28;20035;-87
2022/11/26 03:08:21;;;;;;;21.75;7.70;;;5.80;99.90;;;;;;5111646;28;20063;-87
2022/11/26 03:10:46;;;;;;;15.38;7.80;;;5.80;99.90;;;;;;5114384;28;20036;-87
2022/11/26 03:13:12;;;;;;;18.60;7.32;;;5.80;99.90;;;;;;5112229;28;20054;-87
2022/11/26 03:15:37;;;;;;;16.02;7.47;;;5.80;99.90;;;;;;5113918;28;20047;-87
2022/11/26 03:18:03;;;;;;;15.50;7.18;;;5.80;99.90;;;;;;5113436;28;20050;-87
2022/11/26 03:20:29;;;;;;;16.27;7.07;;;5.80;99.90;;;;;;5113620;28;20039;-87
2022/11/26 03:22:54;;;;;;;12.18;6.63;;;5.80;99.90;;;;;;5113667;28;20458;-87
2022/11/26 03:25:20;;;;;;;16.98;7.18;;;5.80;99.90;;;;;;5112640;28;20038;-87
2022/11/26 03:27:45;;;;;;;12.40;6.72;;;5.70;99.90;;;;;;5096664;28;20058;-87
2022/11/26 03:30:11;;;;;;;17.00;7.75;;;5.70;99.90;;;;;;5095627;28;20040;-87
2022/11/26 03:32:37;;;;;;;15.57;8.00;;;5.70;99.90;;;;;;5113210;28;20501;-87
2022/11/26 03:35:03;;;;;;;15.73;7.40;;;5.70;99.90;;;;;;5096916;28;20043;-87
2022/11/26 03:37:28;;;;;;;17.73;7.28;;;5.70;99.90;;;;;;5112645;28;20504;-87
2022/11/26 03:39:54;;;;;;;17.98;6.38;;;5.70;99.90;;;;;;5096805;28;20040;-87
2022/11/26 03:42:19;;;;;;;16.45;6.55;;;5.60;99.90;;;;;;5112796;28;20031;-87
2022/11/26 03:44:45;;;;;;;14.40;6.25;;;5.60;99.90;;;;;;5112363;28;20126;-87
2022/11/26 03:47:10;;;;;;;14.60;7.10;;;5.60;99.90;;;;;;5095930;28;20038;-87
2022/11/26 03:49:36;;;;;;;17.08;7.65;;;5.60;99.90;;;;;;5095425;28;20032;-87
2022/11/26 03:52:01;;;;;;;16.85;6.68;;;5.50;99.90;;;;;;5112575;28;20506;-87
2022/11/26 03:54:27;;;;;;;12.95;6.30;;;5.60;99.90;;;;;;5112703;28;20557;-87
2022/11/26 03:56:53;;;;;;;17.90;6.13;;;5.50;99.90;;;;;;5095178;28;20035;-87
2022/11/26 03:59:18;;;;;;;15.55;6.07;;;5.50;99.90;;;;;;5113001;28;20085;-87
2022/11/26 04:01:44;;;;;;;19.55;6.82;;;5.50;99.90;;;;;;5099980;28;20458;-87
2022/11/26 04:04:09;;;;;;;16.05;7.18;;;5.50;99.90;;;;;;5108031;28;20100;-87
2022/11/26 04:06:35;;;;;;;15.30;6.72;;;5.50;99.90;;;;;;5112857;28;20038;-87
2022/11/26 04:09:02;;;;;;;14.30;7.13;;;5.50;99.90;;;;;;5112378;28;20031;-87
2022/11/26 04:11:27;;;;;;;15.55;7.60;;;5.50;99.90;;;;;;5112737;28;20065;-87
2022/11/26 04:13:53;;;;;;;15.18;7.35;;;5.40;99.90;;;;;;5112899;28;20035;-87
2022/11/26 04:16:19;;;;;;;18.13;6.88;;;5.50;99.90;;;;;;5111884;28;20040;-87
2022/11/26 04:18:45;;;;;;;17.80;7.43;;;5.50;99.90;;;;;;5111298;28;20039;-86
2022/11/26 04:21:11;;;;;;;17.50;7.32;;;5.40;99.90;;;;;;5094978;28;20040;-86
2022/11/26 04:23:37;;;;;;;22.08;7.95;;;5.40;99.90;;;;;;5112554;28;20539;-86
2022/11/26 04:26:03;;;;;;;14.32;7.45;;;5.40;99.90;;;;;;5112095;28;20071;-87
2022/11/26 04:28:28;;;;;;;17.75;7.57;;;5.40;99.90;;;;;;5112396;28;20040;-86
2022/11/26 04:30:54;;;;;;;15.15;6.68;;;5.30;99.90;;;;;;5103679;28;20032;-87
2022/11/26 04:33:19;;;;;;;20.83;7.60;;;5.30;99.90;;;;;;5108844;28;20114;-87
2022/11/26 04:35:45;;;;;;;29.85;8.50;;;5.30;99.90;;;;;;5112156;28;20038;-87
2022/11/26 04:38:11;;;;;;;27.27;8.38;;;5.30;99.90;;;;;;5095047;28;20126;-87
2022/11/26 04:40:36;;;;;;;23.95;9.13;;;5.30;99.90;;;;;;5094413;28;20127;-86
2022/11/26 04:43:02;;;;;;;39.30;9.50;;;5.30;99.90;;;;;;5112198;28;20035;-86
2022/11/26 04:45:28;;;;;;;16.13;7.43;;;5.30;99.90;;;;;;5094563;28;20031;-86
2022/11/26 04:47:53;;;;;;;22.23;9.45;;;5.30;99.90;;;;;;5112554;28;20031;-86
2022/11/26 04:50:19;;;;;;;20.65;9.30;;;5.30;99.90;;;;;;5112072;28;20081;-86
2022/11/26 04:52:47;;;;;;;18.13;7.78;;;5.30;99.90;;;;;;5111740;28;20047;-86
2022/11/26 04:55:13;;;;;;;19.67;8.35;;;5.30;99.90;;;;;;5111874;28;20035;-86
2022/11/26 04:57:39;;;;;;;23.75;8.48;;;5.30;99.90;;;;;;5094027;28;20118;-86
2022/11/26 05:00:06;;;;;;;14.68;7.55;;;5.40;99.90;;;;;;5112096;28;20157;-86
2022/11/26 05:02:31;;;;;;;19.65;7.88;;;5.30;99.90;;;;;;5094069;28;20561;-86
2022/11/26 05:04:57;;;;;;;14.23;7.07;;;5.40;99.90;;;;;;5094759;28;20032;-86
2022/11/26 05:07:23;;;;;;;20.02;9.32;;;5.40;99.90;;;;;;5112202;28;20031;-86
2022/11/26 05:09:48;;;;;;;17.42;7.75;;;5.40;99.90;;;;;;5094118;28;20031;-86
2022/11/26 05:12:14;;;;;;;16.70;8.13;;;5.40;99.90;;;;;;5111449;28;20092;-86
2022/11/26 05:14:39;;;;;;;17.23;7.82;;;5.40;99.90;;;;;;5111298;28;20389;-86
2022/11/26 05:17:05;;;;;;;16.80;8.05;;;5.40;99.90;;;;;;5111122;28;20036;-86
2022/11/26 05:19:30;;;;;;;21.33;8.25;;;5.40;99.90;;;;;;5095062;28;20038;-86
2022/11/26 05:21:56;;;;;;;19.95;9.07;;;5.40;99.90;;;;;;5110669;28;20631;-86
2022/11/26 05:24:22;;;;;;;19.02;8.43;;;5.40;99.90;;;;;;5111426;28;20052;-86
2022/11/26 05:26:47;;;;;;;28.58;7.82;;;5.40;99.90;;;;;;5094388;28;20071;-86
2022/11/26 05:29:13;;;;;;;30.88;8.07;;;5.30;99.90;;;;;;5094024;28;20118;-86
2022/11/26 05:31:38;;;;;;;16.27;7.65;;;5.30;99.90;;;;;;5094073;28;20049;-86
2022/11/26 05:34:04;;;;;;;19.42;7.03;;;5.30;99.90;;;;;;5093464;28;20373;-86
2022/11/26 05:36:29;;;;;;;13.73;7.65;;;5.30;99.90;;;;;;5111092;28;20560;-86
2022/11/26 05:38:55;;;;;;;14.95;8.05;;;5.30;99.90;;;;;;5093918;28;20089;-86
2022/11/26 05:41:21;;;;;;;17.73;7.88;;;5.20;99.90;;;;;;5110848;28;20044;-86
2022/11/26 05:43:46;;;;;;;16.75;8.75;;;5.20;99.90;;;;;;5110905;28;20127;-86
2022/11/26 05:46:14;;;;;;;14.52;7.72;;;5.30;99.90;;;;;;5110756;28;20032;-86
2022/11/26 05:48:39;;;;;;;18.20;7.90;;;5.30;99.90;;;;;;5111119;28;20039;-86
2022/11/26 05:51:05;;;;;;;15.05;7.45;;;5.30;99.90;;;;;;5109770;28;20073;-86
2022/11/26 05:53:30;;;;;;;16.55;8.18;;;5.30;99.90;;;;;;5109708;28;20066;-86
2022/11/26 05:55:56;;;;;;;18.33;8.25;;;5.30;99.90;;;;;;5110565;28;20051;-86
2022/11/26 05:58:22;;;;;;;18.35;8.35;;;5.30;99.90;;;;;;5110303;28;20121;-86
2022/11/26 06:00:47;;;;;;;17.52;8.15;;;5.30;99.90;;;;;;5110455;28;20054;-86
2022/11/26 06:03:13;;;;;;;14.68;7.80;;;5.20;99.90;;;;;;5110805;28;20040;-86
2022/11/26 06:05:38;;;;;;;17.83;8.70;;;5.30;99.90;;;;;;5109657;28;20036;-86
2022/11/26 06:08:04;;;;;;;18.67;9.10;;;5.20;99.90;;;;;;5110792;28;20122;-86
2022/11/26 06:10:30;;;;;;;17.83;8.27;;;5.20;99.90;;;;;;5109699;28;20100;-86
2022/11/26 06:12:55;;;;;;;15.93;8.40;;;5.20;99.90;;;;;;5110781;28;20039;-86
2022/11/26 06:15:21;;;;;;;20.40;8.63;;;5.20;99.90;;;;;;5110172;28;20036;-87
2022/11/26 06:17:46;;;;;;;21.02;9.38;;;5.20;99.90;;;;;;5110137;28;20035;-86
2022/11/26 06:20:12;;;;;;;20.92;9.65;;;5.20;99.90;;;;;;5110500;28;20074;-86
2022/11/26 06:22:39;;;;;;;19.10;7.88;;;5.20;99.90;;;;;;5093022;28;20118;-87
2022/11/26 06:25:07;;;;;;;17.85;7.75;;;5.20;99.90;;;;;;5110730;28;20492;-86
2022/11/26 06:27:34;;;;;;;19.67;7.85;;;5.20;99.90;;;;;;5109814;28;20127;-86
2022/11/26 06:30:00;;;;;;;17.20;8.70;;;5.20;99.90;;;;;;5110266;28;20127;-86
2022/11/26 06:32:28;;;;;;;15.48;7.63;;;5.20;99.90;;;;;;5091353;28;20561;-86
2022/11/26 06:34:54;;;;;;;15.80;7.65;;;5.20;99.90;;;;;;5110037;28;20074;-86
2022/11/26 06:37:20;;;;;;;14.80;7.88;;;5.10;99.90;;;;;;5110282;28;20071;-86
2022/11/26 06:39:45;;;;;;;18.30;8.23;;;5.10;99.90;;;;;;5109134;28;20031;-86
2022/11/26 06:42:11;;;;;;;28.52;9.75;;;5.20;99.90;;;;;;5111214;28;20112;-86
2022/11/26 06:44:36;;;;;;;22.48;8.90;;;5.10;99.90;;;;;;5113853;28;20426;-86
2022/11/26 06:47:02;;;;;;;19.92;8.02;;;5.10;99.90;;;;;;5097679;28;20512;-86
2022/11/26 06:49:27;;;;;;;21.63;7.35;;;5.10;99.90;;;;;;5096748;28;20058;-86
2022/11/26 06:51:53;;;;;;;15.20;7.10;;;5.10;99.90;;;;;;5097072;28;20044;-86
2022/11/26 06:54:19;;;;;;;24.17;7.40;;;5.00;99.90;;;;;;5097111;28;20134;-86
2022/11/26 06:56:45;;;;;;;14.07;7.40;;;5.00;99.90;;;;;;5113535;28;20122;-86
2022/11/26 06:59:10;;;;;;;16.83;7.35;;;5.00;99.90;;;;;;5114413;28;20405;-86
2022/11/26 07:01:36;;;;;;;12.85;6.53;;;5.00;99.90;;;;;;5114253;28;20059;-86
2022/11/26 07:04:01;;;;;;;16.83;7.63;;;5.00;99.90;;;;;;5096327;28;20437;-86
2022/11/26 07:06:29;;;;;;;20.65;8.10;;;5.00;99.90;;;;;;5114040;28;20095;-87
2022/11/26 07:08:58;;;;;;;18.05;7.65;;;4.90;99.90;;;;;;5113992;28;20074;-86
2022/11/26 07:11:25;;;;;;;15.60;8.20;;;4.90;99.90;;;;;;5097108;28;20039;-86
2022/11/26 07:13:51;;;;;;;29.95;10.00;;;4.90;99.90;;;;;;5113637;28;20084;-86
2022/11/26 07:16:17;;;;;;;64.63;10.40;;;4.90;99.90;;;;;;5112418;28;20028;-86
2022/11/26 07:18:47;;;;;;;51.47;10.52;;;4.90;99.90;;;;;;5096332;28;20041;-85
2022/11/26 07:21:13;;;;;;;33.78;10.82;;;4.90;99.90;;;;;;5095633;28;20068;-86
2022/11/26 07:23:40;;;;;;;42.63;10.63;;;4.90;99.90;;;;;;5085288;28;20036;-86
2022/11/26 07:26:07;;;;;;;50.50;10.20;;;4.80;99.90;;;;;;5095964;28;20081;-86
2022/11/26 07:28:33;;;;;;;84.63;14.75;;;4.90;99.90;;;;;;5113439;28;20465;-86
2022/11/26 07:31:01;;;;;;;59.10;10.55;;;4.90;99.90;;;;;;5113493;28;20039;-86
2022/11/26 07:33:27;;;;;;;85.60;12.05;;;4.90;99.90;;;;;;5095057;28;20071;-86
2022/11/26 07:35:52;;;;;;;73.63;12.57;;;4.90;99.90;;;;;;5113751;28;20091;-86
2022/11/26 07:38:18;;;;;;;68.65;11.73;;;4.90;99.90;;;;;;5111529;28;20480;-88
2022/11/26 07:40:44;;;;;;;77.40;11.20;;;4.90;99.90;;;;;;5096596;28;20032;-86
2022/11/26 07:43:09;;;;;;;46.90;9.55;;;4.90;99.90;;;;;;5124098;27;20074;-87
2022/11/26 07:45:36;;;;;;;52.83;11.02;;;4.80;99.90;;;;;;5078862;28;20476;-86
2022/11/26 07:48:03;;;;;;;64.82;12.23;;;4.80;99.90;;;;;;5113257;28;20043;-87
2022/11/26 07:50:29;;;;;;;31.73;9.80;;;4.80;99.90;;;;;;5096643;28;20484;-86
2022/11/26 07:52:54;;;;;;;27.67;10.35;;;4.90;99.90;;;;;;5112527;28;20078;-86
2022/11/26 07:55:20;;;;;;;22.67;10.93;;;4.90;99.90;;;;;;5112449;28;20135;-87
2022/11/26 07:57:46;;;;;;;20.63;11.70;;;4.90;99.90;;;;;;5113236;28;20042;-87
2022/11/26 08:00:12;;;;;;;26.05;10.02;;;5.00;99.90;;;;;;5105618;28;20109;-86
2022/11/26 08:02:38;;;;;;;18.85;9.75;;;5.00;99.90;;;;;;5075518;28;20092;-86
2022/11/26 08:05:04;;;;;;;19.67;10.32;;;5.10;99.90;;;;;;5081281;28;20126;-87
2022/11/26 08:07:29;;;;;;;24.42;11.35;;;5.10;99.90;;;;;;5111826;28;20035;-87
2022/11/26 08:09:55;;;;;;;19.38;10.75;;;5.20;99.90;;;;;;5094710;28;20180;-87
2022/11/26 08:12:21;;;;;;;20.77;9.90;;;5.20;99.90;;;;;;5110261;28;20503;-87
2022/11/26 08:14:47;;;;;;;22.60;10.90;;;5.20;99.90;;;;;;5111173;28;20548;-87
2022/11/26 08:17:12;;;;;;;24.80;9.90;;;5.30;99.90;;;;;;5110999;28;20092;-86
2022/11/26 08:19:38;;;;;;;22.30;10.60;;;5.30;99.90;;;;;;5095601;28;20036;-87
2022/11/26 08:22:03;;;;;;;21.73;11.35;;;5.40;99.90;;;;;;5112562;28;20092;-87
2022/11/26 08:24:30;;;;;;;25.23;11.75;;;5.40;99.90;;;;;;5111998;28;20112;-87
2022/11/26 08:26:58;;;;;;;20.90;10.10;;;5.40;99.90;;;;;;5112633;28;20046;-87
2022/11/26 08:29:24;;;;;;;22.60;10.02;;;5.50;99.90;;;;;;5094321;28;20032;-87
2022/11/26 08:31:50;;;;;;;21.33;11.43;;;5.50;99.90;;;;;;5090781;28;20043;-86
2022/11/26 08:34:15;;;;;;;23.52;10.95;;;5.60;99.90;;;;;;5093258;28;20047;-86
2022/11/26 08:36:41;;;;;;;24.08;11.13;;;5.60;99.90;;;;;;5112123;28;20071;-86
2022/11/26 08:39:11;;;;;;;23.80;11.65;;;5.60;99.90;;;;;;5112540;28;20082;-86
2022/11/26 08:41:36;;;;;;;24.08;12.45;;;5.70;99.90;;;;;;5094897;28;20073;-86
2022/11/26 08:44:02;;;;;;;27.17;12.60;;;5.70;99.90;;;;;;5094696;28;20040;-86
2022/11/26 08:46:27;;;;;;;27.95;13.25;;;5.70;99.90;;;;;;5095296;28;20046;-86
2022/11/26 08:48:57;;;;;;;26.25;13.45;;;5.80;99.90;;;;;;5111139;28;20564;-86
2022/11/26 08:51:23;;;;;;;32.40;13.88;;;5.80;99.90;;;;;;5111900;28;20039;-87
2022/11/26 08:53:49;;;;;;;30.92;13.80;;;5.90;99.90;;;;;;5094632;28;20028;-86
2022/11/26 08:56:14;;;;;;;25.02;13.57;;;5.90;99.90;;;;;;5111655;28;20043;-87
2022/11/26 08:58:43;;;;;;;29.33;13.10;;;6.00;99.90;;;;;;5112344;28;20058;-86
2022/11/26 09:01:14;;;;;;;28.13;13.27;;;6.00;99.90;;;;;;5111203;28;20118;-87
2022/11/26 09:03:40;;;;;;;30.33;14.35;;;6.10;99.90;;;;;;5112031;28;20040;-86
2022/11/26 09:06:06;;;;;;;30.65;14.88;;;6.10;99.90;;;;;;5093420;28;20039;-86
2022/11/26 09:09:11;;;;;;;27.02;14.20;;;6.10;99.90;;;;;;5111562;28;20031;-87
2022/11/26 09:11:20;;;;;;;29.52;14.30;;;6.20;99.90;;;;;;5111157;28;20425;-87
2022/11/26 09:13:46;;;;;;;28.15;15.07;;;6.20;99.90;;;;;;5111650;28;20539;-87
2022/11/26 09:16:11;;;;;;;34.22;16.50;;;6.30;99.90;;;;;;5111347;28;20558;-87
2022/11/26 09:18:37;;;;;;;33.58;14.95;;;6.30;99.90;;;;;;5110273;28;20531;-87
2022/11/26 09:21:03;;;;;;;32.95;15.45;;;6.30;99.90;;;;;;5111005;28;20089;-87
2022/11/26 09:23:29;;;;;;;36.60;16.23;;;6.40;99.90;;;;;;5094260;28;20031;-86
2022/11/26 09:25:54;;;;;;;31.40;16.05;;;6.40;99.90;;;;;;5110336;28;20039;-86
2022/11/26 09:28:20;;;;;;;37.85;17.77;;;6.50;99.90;;;;;;5111658;28;20095;-86
2022/11/26 09:30:45;;;;;;;39.95;17.50;;;6.50;99.90;;;;;;5110897;28;20039;-86
2022/11/26 09:33:11;;;;;;;38.17;18.92;;;6.60;99.90;;;;;;5110694;28;20126;-87
2022/11/26 09:35:36;;;;;;;33.55;17.25;;;6.60;99.90;;;;;;5093853;28;20042;-86
2022/11/26 09:38:02;;;;;;;37.97;17.40;;;6.60;99.90;;;;;;5101089;28;20044;-85
2022/11/26 09:40:58;;;;;;;35.28;17.92;;;6.70;99.90;;;;;;5073510;28;20044;-87
2022/11/26 09:43:38;;;;;;;35.08;16.50;;;6.70;99.90;;;;;;5094189;28;20065;-86
2022/11/26 09:46:05;;;;;;;38.40;17.27;;;6.80;99.90;;;;;;5095656;28;20043;-86
2022/11/26 09:48:32;;;;;;;33.65;14.48;;;6.80;99.90;;;;;;5082052;28;20043;-86
2022/11/26 09:51:11;;;;;;;38.50;15.88;;;6.80;99.90;;;;;;5110990;28;20036;-86
2022/11/26 09:53:44;;;;;;;40.00;17.90;;;6.90;99.90;;;;;;5110101;28;20725;-86
2022/11/26 09:56:19;;;;;;;40.33;17.58;;;6.90;99.90;;;;;;5111019;28;20046;-87
2022/11/26 09:59:00;;;;;;;38.70;17.25;;;7.00;99.90;;;;;;5110949;28;20043;-86
2022/11/26 10:01:26;;;;;;;37.47;17.90;;;7.00;99.90;;;;;;5092763;28;20044;-86
2022/11/26 10:03:52;;;;;;;41.42;18.83;;;7.00;99.90;;;;;;5093703;28;20032;-86
2022/11/26 10:06:54;;;;;;;43.90;18.90;;;7.10;99.90;;;;;;5110812;28;20463;-86
2022/11/26 10:09:29;;;;;;;43.33;17.77;;;7.10;99.90;;;;;;5110035;28;20050;-86
2022/11/26 10:12:06;;;;;;;45.03;21.50;;;7.10;99.90;;;;;;5110375;28;20036;-86
2022/11/26 10:15:02;;;;;;;43.22;19.55;;;7.10;99.90;;;;;;5109653;28;20036;-86
2022/11/26 10:17:38;;;;;;;36.47;18.27;;;7.20;99.90;;;;;;5110071;28;20072;-86
2022/11/26 10:20:32;;;;;;;41.40;17.63;;;7.20;99.90;;;;;;5109327;28;20078;-86
2022/11/26 10:23:04;;;;;;;35.40;18.23;;;7.20;99.90;;;;;;5109660;28;20050;-87
2022/11/26 10:25:38;;;;;;;44.33;20.00;;;7.30;99.90;;;;;;5092095;28;20122;-87
2022/11/26 10:28:24;;;;;;;45.58;21.35;;;7.30;99.90;;;;;;5110348;28;20036;-87
2022/11/26 10:31:02;;;;;;;47.33;20.48;;;7.30;99.90;;;;;;5109609;28;20039;-87
2022/11/26 10:33:36;;;;;;;50.88;19.20;;;7.40;99.90;;;;;;5093038;28;20048;-87
2022/11/26 10:36:07;;;;;;;45.67;20.63;;;7.40;99.90;;;;;;5093233;28;20081;-86
2022/11/26 10:38:33;;;;;;;47.70;21.10;;;7.40;99.90;;;;;;5092683;28;20086;-86
2022/11/26 10:40:59;;;;;;;39.33;18.63;;;7.40;99.90;;;;;;5093433;28;20067;-86
2022/11/26 10:43:25;;;;;;;44.80;20.38;;;7.50;99.90;;;;;;5100896;28;20032;-86
2022/11/26 10:45:55;;;;;;;41.20;20.80;;;7.50;99.90;;;;;;5110267;28;20046;-86
2022/11/26 10:48:29;;;;;;;45.22;20.10;;;7.50;99.90;;;;;;5111011;28;20032;-86
2022/11/26 10:50:59;;;;;;;40.60;21.23;;;7.50;99.90;;;;;;5109858;28;20051;-86
2022/11/26 10:53:27;;;;;;;56.30;20.02;;;7.60;99.90;;;;;;5107456;28;20493;-86
2022/11/26 10:55:57;;;;;;;51.22;23.30;;;7.60;99.90;;;;;;5106941;28;20071;-86
2022/11/26 10:58:42;;;;;;;55.63;22.85;;;7.60;99.90;;;;;;5109877;28;20534;-86
2022/11/26 11:01:12;;;;;;;47.63;20.83;;;7.70;99.90;;;;;;5074211;28;20093;-86
2022/11/26 11:03:48;;;;;;;46.22;22.23;;;7.70;99.90;;;;;;5089616;28;20040;-86
2022/11/26 11:06:19;;;;;;;50.13;22.60;;;7.70;99.90;;;;;;5123750;27;20032;-87
2022/11/26 11:08:51;;;;;;;56.75;23.38;;;7.80;99.90;;;;;;5125888;27;20047;-87
2022/11/26 11:11:25;;;;;;;46.30;21.75;;;7.80;99.90;;;;;;5110250;28;20035;-87
2022/11/26 11:13:51;;;;;;;45.33;20.90;;;7.90;99.90;;;;;;5109594;28;20039;-87
2022/11/26 11:16:29;;;;;;;48.00;22.80;;;7.90;99.90;;;;;;5109650;28;20424;-86
2022/11/26 11:19:01;;;;;;;46.20;21.13;;;8.00;99.90;;;;;;5110146;28;20124;-87
2022/11/26 11:21:34;;;;;;;47.58;22.38;;;8.00;99.90;;;;;;5094898;28;20036;-87
2022/11/26 11:24:19;;;;;;;50.13;23.52;;;8.10;99.90;;;;;;5097438;28;20040;-87
2022/11/26 11:26:47;;;;;;;48.20;20.98;;;8.10;99.90;;;;;;5086850;28;20401;-87
2022/11/26 11:29:28;;;;;;;49.67;23.25;;;8.10;99.90;;;;;;5105149;28;20040;-87
2022/11/26 11:31:56;;;;;;;51.25;21.17;;;8.20;99.90;;;;;;5073879;28;20070;-87
2022/11/26 11:34:36;;;;;;;50.45;21.60;;;8.20;99.90;;;;;;5107150;28;20048;-87
2022/11/26 11:37:13;;;;;;;48.05;21.70;;;8.20;99.90;;;;;;5087955;28;20128;-87
2022/11/26 11:39:39;;;;;;;41.20;20.33;;;8.30;99.90;;;;;;5112341;28;20456;-87
2022/11/26 11:42:27;;;;;;;40.45;19.55;;;8.30;99.90;;;;;;5114412;28;20540;-87
2022/11/26 11:44:53;;;;;;;38.92;19.70;;;8.30;99.90;;;;;;5112577;28;20031;-87
2022/11/26 11:47:31;;;;;;;46.05;20.60;;;8.30;99.90;;;;;;5096804;28;20067;-87
2022/11/26 11:50:28;;;;;;;39.88;19.65;;;8.30;99.90;;;;;;5113220;28;20035;-87
2022/11/26 11:53:18;;;;;;;41.45;19.42;;;8.40;99.90;;;;;;5112051;28;20035;-87
2022/11/26 11:56:08;;;;;;;37.33;18.60;;;8.40;99.90;;;;;;5113315;28;20039;-87
2022/11/26 11:59:11;;;;;;;39.30;19.92;;;8.40;99.90;;;;;;5086723;28;20097;-87
2022/11/26 12:02:10;;;;;;;39.38;18.50;;;8.40;99.90;;;;;;5112162;28;20576;-87
2022/11/26 12:04:52;;;;;;;38.38;17.52;;;8.40;99.90;;;;;;5111249;28;20040;-87
2022/11/26 12:07:21;;;;;;;44.53;19.20;;;8.50;99.90;;;;;;5111898;28;20035;-87
2022/11/26 12:09:50;;;;;;;41.42;19.55;;;8.50;99.90;;;;;;5111750;28;20035;-87
2022/11/26 12:12:25;;;;;;;38.75;19.73;;;8.50;99.90;;;;;;5112191;28;20043;-87
2022/11/26 12:14:59;;;;;;;45.03;19.75;;;8.50;99.90;;;;;;5111737;28;20046;-87
2022/11/26 12:17:43;;;;;;;37.25;17.10;;;8.50;99.90;;;;;;5112385;28;20408;-87
2022/11/26 12:20:33;;;;;;;41.50;17.42;;;8.50;99.90;;;;;;5111985;28;20042;-87
2022/11/26 12:23:14;;;;;;;39.05;17.77;;;8.60;99.90;;;;;;5110991;28;20061;-87
2022/11/26 12:25:40;;;;;;;43.15;16.90;;;8.60;99.90;;;;;;5112026;28;20506;-87
2022/11/26 12:28:16;;;;;;;37.80;17.02;;;8.60;99.90;;;;;;5111604;28;20035;-87
2022/11/26 12:31:02;;;;;;;37.70;18.85;;;8.60;99.90;;;;;;5111319;28;20416;-87
2022/11/26 12:34:03;;;;;;;31.50;16.30;;;8.60;99.90;;;;;;5094325;28;20035;-87
2022/11/26 12:36:52;;;;;;;39.33;16.13;;;8.60;99.90;;;;;;5089647;28;20052;-88
2022/11/26 12:39:45;;;;;;;39.58;17.08;;;8.60;99.90;;;;;;5096316;28;20130;-88
2022/11/26 12:42:29;;;;;;;34.35;17.30;;;8.70;99.90;;;;;;5095973;28;20051;-87
2022/11/26 12:44:56;;;;;;;;;;;8.70;99.90;;;;;;5074857;28;20131;-87
2022/11/26 12:47:40;;;;;;;30.33;14.68;;;8.70;99.90;;;;;;5125023;27;20335;-87
2022/11/26 12:50:27;;;;;;;29.77;14.02;;;8.70;99.90;;;;;;5065056;28;20040;-87
2022/11/26 12:53:17;;;;;;;27.83;13.18;;;8.70;99.90;;;;;;5090292;28;20032;-87
2022/11/26 12:56:00;;;;;;;32.55;14.45;;;8.70;99.90;;;;;;5098532;28;20040;-87
2022/11/26 12:58:46;;;;;;;30.95;13.60;;;8.70;99.90;;;;;;5096718;28;20040;-88